KCFV/CFV METAR and TAF weather

Enter ICAO airport designator
Station Type Date Time Source
KCFV METAR 2022/11/30 17:52 UTC NOAA

KCFV 301752Z AUTO VRB05KT 10SM CLR 03/M11 A3046 RMK AO2 SLP322 T00281106 10028 21061 50005


Station Type Date Time Source
KCFV Decoded METAR 2022/11/30 17:52 UTC NOAA

COFFEYVILLE MUNICIPAL AIRPORT , KS, United States (KCFV) 37-05N 95-34W 225M
Nov 30, 2022 - 12:52 PM EST / 2022.11.30 1752 UTC
Wind: Variable at 6 MPH (5 KT):0
Visibility: 10 mile(s):0
Sky conditions: clear
Temperature: 37.0 F (2.8 C)
Dew Point: 12.9 F (-10.6 C)
Relative Humidity: 36%
Pressure (altimeter): 30.46 in. Hg (1031 hPa)
Pressure tendency: 0.01 inches (0.5 hPa) higher than three hours ago
ob: KCFV 301752Z AUTO VRB05KT 10SM CLR 03/M11 A3046 RMK AO2 SLP322 T00281106 10028 21061 50005
cycle: 18

Station Type Date Time Source
KCFV TAF UTC NOAA

Error!

Example: see airport list